Herk-de-Stad, Belgium
Current Conditions -  °F | °C
As of 10:25 PM on Wednesday 28 Jan 2015 (Local Time) from EBDT Reporting Station
Broken Clouds Broken Clouds  
Wind Chill: 28°   Ceiling: 7000
Heat Index: 37°   Visibility: 6mi
Dew Point: 30°   Wind: 17mph
Humidity: 75%   Direction: 270°W
Pressure: 29.53"   Gusts: 31mph
Location:  50.94°N, 5.17°E
Report Text: EBDT 282125Z AUTO 27015G27KT 9999 FEW017/// SCT050/// BKN070/// 03/M01 Q1000 BLU
Loading
Personal Weather Stations






























Interactive Weather Map New forecast layout! Learn more

10-Day Weather Forecast

Advertisements
Track Severe Weather on mobile